sensor_id;sensor_type;location;lat;lon;timestamp;P1;durP1;ratioP1;P2;durP2;ratioP2
78875;SDS011;68253;52.506;5.486;2023-04-06T00:02:16;10.02;;;3.80;;
78875;SDS011;68253;52.506;5.486;2023-04-06T00:04:42;9.27;;;3.60;;
78875;SDS011;68253;52.506;5.486;2023-04-06T00:07:08;8.52;;;3.15;;
78875;SDS011;68253;52.506;5.486;2023-04-06T00:09:34;9.95;;;3.28;;
78875;SDS011;68253;52.506;5.486;2023-04-06T00:12:00;8.63;;;3.25;;
78875;SDS011;68253;52.506;5.486;2023-04-06T00:14:26;12.32;;;3.75;;
78875;SDS011;68253;52.506;5.486;2023-04-06T00:16:52;10.77;;;3.70;;
78875;SDS011;68253;52.506;5.486;2023-04-06T00:19:18;10.32;;;3.60;;
78875;SDS011;68253;52.506;5.486;2023-04-06T00:21:44;11.00;;;4.03;;
78875;SDS011;68253;52.506;5.486;2023-04-06T00:24:11;8.93;;;2.80;;
78875;SDS011;68253;52.506;5.486;2023-04-06T00:26:37;9.05;;;3.20;;
78875;SDS011;68253;52.506;5.486;2023-04-06T00:29:03;10.02;;;3.47;;
78875;SDS011;68253;52.506;5.486;2023-04-06T00:31:29;10.63;;;3.55;;
78875;SDS011;68253;52.506;5.486;2023-04-06T00:33:55;11.30;;;3.55;;
78875;SDS011;68253;52.506;5.486;2023-04-06T00:36:21;10.77;;;3.65;;
78875;SDS011;68253;52.506;5.486;2023-04-06T00:38:48;9.80;;;3.65;;
78875;SDS011;68253;52.506;5.486;2023-04-06T00:41:14;9.63;;;3.00;;
78875;SDS011;68253;52.506;5.486;2023-04-06T00:43:40;10.05;;;3.15;;
78875;SDS011;68253;52.506;5.486;2023-04-06T00:46:07;9.13;;;3.05;;
78875;SDS011;68253;52.506;5.486;2023-04-06T00:48:33;9.18;;;3.45;;
78875;SDS011;68253;52.506;5.486;2023-04-06T00:51:00;11.93;;;3.60;;
78875;SDS011;68253;52.506;5.486;2023-04-06T00:53:26;9.48;;;3.55;;
78875;SDS011;68253;52.506;5.486;2023-04-06T00:55:53;9.93;;;3.40;;
78875;SDS011;68253;52.506;5.486;2023-04-06T00:58:20;9.15;;;3.58;;
78875;SDS011;68253;52.506;5.486;2023-04-06T01:00:51;9.65;;;3.25;;
78875;SDS011;68253;52.506;5.486;2023-04-06T01:03:20;9.57;;;3.25;;
78875;SDS011;68253;52.506;5.486;2023-04-06T01:05:47;11.48;;;3.38;;
78875;SDS011;68253;52.506;5.486;2023-04-06T01:08:19;9.20;;;3.00;;
78875;SDS011;68253;52.506;5.486;2023-04-06T01:10:46;10.77;;;3.50;;
78875;SDS011;68253;52.506;5.486;2023-04-06T01:15:53;10.18;;;3.40;;
78875;SDS011;68253;52.506;5.486;2023-04-06T01:18:28;9.60;;;3.10;;
78875;SDS011;68253;52.506;5.486;2023-04-06T01:21:11;9.52;;;3.35;;
78875;SDS011;68253;52.506;5.486;2023-04-06T01:23:45;9.02;;;2.90;;
78875;SDS011;68253;52.506;5.486;2023-04-06T01:26:18;9.50;;;3.25;;
78875;SDS011;68253;52.506;5.486;2023-04-06T01:28:44;8.50;;;2.88;;
78875;SDS011;68253;52.506;5.486;2023-04-06T01:31:22;8.38;;;2.45;;
78875;SDS011;68253;52.506;5.486;2023-04-06T01:33:51;10.52;;;3.08;;
78875;SDS011;68253;52.506;5.486;2023-04-06T01:36:20;9.52;;;3.20;;
78875;SDS011;68253;52.506;5.486;2023-04-06T01:38:53;9.52;;;3.42;;
78875;SDS011;68253;52.506;5.486;2023-04-06T01:41:24;9.48;;;3.35;;
78875;SDS011;68253;52.506;5.486;2023-04-06T01:43:52;10.27;;;4.03;;
78875;SDS011;68253;52.506;5.486;2023-04-06T01:46:21;8.48;;;2.83;;
78875;SDS011;68253;52.506;5.486;2023-04-06T01:48:48;8.88;;;2.90;;
78875;SDS011;68253;52.506;5.486;2023-04-06T01:51:43;9.57;;;3.17;;
78875;SDS011;68253;52.506;5.486;2023-04-06T01:54:12;9.60;;;2.92;;
78875;SDS011;68253;52.506;5.486;2023-04-06T01:56:50;9.32;;;3.25;;
78875;SDS011;68253;52.506;5.486;2023-04-06T01:59:38;10.02;;;3.47;;
78875;SDS011;68253;52.506;5.486;2023-04-06T02:02:10;10.18;;;3.30;;
78875;SDS011;68253;52.506;5.486;2023-04-06T02:04:38;8.05;;;2.60;;
78875;SDS011;68253;52.506;5.486;2023-04-06T02:07:09;9.88;;;3.50;;
78875;SDS011;68253;52.506;5.486;2023-04-06T02:09:36;9.70;;;3.42;;
78875;SDS011;68253;52.506;5.486;2023-04-06T02:12:04;8.23;;;2.75;;
78875;SDS011;68253;52.506;5.486;2023-04-06T02:14:32;8.57;;;2.83;;
78875;SDS011;68253;52.506;5.486;2023-04-06T02:17:00;7.97;;;2.78;;
78875;SDS011;68253;52.506;5.486;2023-04-06T02:19:26;10.10;;;2.97;;
78875;SDS011;68253;52.506;5.486;2023-04-06T02:21:53;8.93;;;3.25;;
78875;SDS011;68253;52.506;5.486;2023-04-06T02:24:19;9.73;;;3.25;;
78875;SDS011;68253;52.506;5.486;2023-04-06T02:26:45;8.55;;;2.88;;
78875;SDS011;68253;52.506;5.486;2023-04-06T02:29:11;10.32;;;2.90;;
78875;SDS011;68253;52.506;5.486;2023-04-06T02:31:37;8.38;;;2.90;;
78875;SDS011;68253;52.506;5.486;2023-04-06T02:34:05;9.40;;;3.53;;
78875;SDS011;68253;52.506;5.486;2023-04-06T02:36:32;7.80;;;2.53;;
78875;SDS011;68253;52.506;5.486;2023-04-06T02:38:58;9.15;;;2.88;;
78875;SDS011;68253;52.506;5.486;2023-04-06T02:41:27;9.50;;;3.20;;
78875;SDS011;68253;52.506;5.486;2023-04-06T02:46:34;9.35;;;3.22;;
78875;SDS011;68253;52.506;5.486;2023-04-06T02:49:02;8.93;;;3.20;;
78875;SDS011;68253;52.506;5.486;2023-04-06T02:51:31;8.05;;;2.83;;
78875;SDS011;68253;52.506;5.486;2023-04-06T02:54:08;9.10;;;3.03;;
78875;SDS011;68253;52.506;5.486;2023-04-06T02:56:34;9.15;;;3.05;;
78875;SDS011;68253;52.506;5.486;2023-04-06T02:59:00;9.70;;;3.10;;
78875;SDS011;68253;52.506;5.486;2023-04-06T03:01:29;8.77;;;3.03;;
78875;SDS011;68253;52.506;5.486;2023-04-06T03:03:59;9.98;;;3.22;;
78875;SDS011;68253;52.506;5.486;2023-04-06T03:06:27;10.70;;;3.88;;
78875;SDS011;68253;52.506;5.486;2023-04-06T03:08:58;8.40;;;2.83;;
78875;SDS011;68253;52.506;5.486;2023-04-06T03:11:24;7.72;;;2.67;;
78875;SDS011;68253;52.506;5.486;2023-04-06T03:13:52;8.73;;;2.83;;
78875;SDS011;68253;52.506;5.486;2023-04-06T03:16:18;10.23;;;2.85;;
78875;SDS011;68253;52.506;5.486;2023-04-06T03:18:44;10.25;;;3.20;;
78875;SDS011;68253;52.506;5.486;2023-04-06T03:21:12;8.52;;;3.38;;
78875;SDS011;68253;52.506;5.486;2023-04-06T03:23:46;8.85;;;3.08;;
78875;SDS011;68253;52.506;5.486;2023-04-06T03:26:12;9.77;;;3.10;;
78875;SDS011;68253;52.506;5.486;2023-04-06T03:28:38;10.02;;;3.58;;
78875;SDS011;68253;52.506;5.486;2023-04-06T03:31:05;9.88;;;3.53;;
78875;SDS011;68253;52.506;5.486;2023-04-06T03:33:50;8.95;;;2.88;;
78875;SDS011;68253;52.506;5.486;2023-04-06T03:36:21;8.95;;;2.20;;
78875;SDS011;68253;52.506;5.486;2023-04-06T03:38:47;9.27;;;3.42;;
78875;SDS011;68253;52.506;5.486;2023-04-06T03:41:14;10.05;;;3.33;;
78875;SDS011;68253;52.506;5.486;2023-04-06T03:43:46;8.63;;;2.50;;
78875;SDS011;68253;52.506;5.486;2023-04-06T03:46:12;9.73;;;3.45;;
78875;SDS011;68253;52.506;5.486;2023-04-06T03:48:38;10.57;;;3.58;;
78875;SDS011;68253;52.506;5.486;2023-04-06T03:51:06;8.85;;;3.28;;
78875;SDS011;68253;52.506;5.486;2023-04-06T03:53:32;8.70;;;2.97;;
78875;SDS011;68253;52.506;5.486;2023-04-06T03:55:58;9.07;;;3.13;;
78875;SDS011;68253;52.506;5.486;2023-04-06T03:58:24;8.63;;;2.80;;
78875;SDS011;68253;52.506;5.486;2023-04-06T04:00:51;9.73;;;3.45;;
78875;SDS011;68253;52.506;5.486;2023-04-06T04:03:17;9.70;;;2.97;;
78875;SDS011;68253;52.506;5.486;2023-04-06T04:05:43;9.75;;;3.40;;
78875;SDS011;68253;52.506;5.486;2023-04-06T04:08:11;8.90;;;3.10;;
78875;SDS011;68253;52.506;5.486;2023-04-06T04:10:37;10.00;;;3.40;;
78875;SDS011;68253;52.506;5.486;2023-04-06T04:13:03;8.10;;;2.40;;
78875;SDS011;68253;52.506;5.486;2023-04-06T04:15:29;9.43;;;3.45;;
78875;SDS011;68253;52.506;5.486;2023-04-06T04:17:55;7.90;;;2.53;;
78875;SDS011;68253;52.506;5.486;2023-04-06T04:20:22;10.40;;;3.25;;
78875;SDS011;68253;52.506;5.486;2023-04-06T04:22:48;7.95;;;2.65;;
78875;SDS011;68253;52.506;5.486;2023-04-06T04:25:15;9.32;;;3.10;;
78875;SDS011;68253;52.506;5.486;2023-04-06T04:27:46;9.52;;;3.17;;
78875;SDS011;68253;52.506;5.486;2023-04-06T04:30:13;9.73;;;4.18;;
78875;SDS011;68253;52.506;5.486;2023-04-06T04:32:39;8.15;;;2.70;;
78875;SDS011;68253;52.506;5.486;2023-04-06T04:35:08;9.10;;;3.13;;
78875;SDS011;68253;52.506;5.486;2023-04-06T04:37:37;10.82;;;4.28;;
78875;SDS011;68253;52.506;5.486;2023-04-06T04:40:03;12.75;;;4.50;;
78875;SDS011;68253;52.506;5.486;2023-04-06T04:42:37;10.98;;;3.83;;
78875;SDS011;68253;52.506;5.486;2023-04-06T04:45:06;12.05;;;4.85;;
78875;SDS011;68253;52.506;5.486;2023-04-06T04:47:36;12.10;;;4.07;;
78875;SDS011;68253;52.506;5.486;2023-04-06T04:50:04;9.98;;;3.70;;
78875;SDS011;68253;52.506;5.486;2023-04-06T04:52:31;10.77;;;3.92;;
78875;SDS011;68253;52.506;5.486;2023-04-06T04:55:10;9.65;;;3.40;;
78875;SDS011;68253;52.506;5.486;2023-04-06T04:57:36;9.30;;;3.15;;
78875;SDS011;68253;52.506;5.486;2023-04-06T05:00:04;9.20;;;3.30;;
78875;SDS011;68253;52.506;5.486;2023-04-06T05:02:32;9.30;;;3.28;;
78875;SDS011;68253;52.506;5.486;2023-04-06T05:05:11;9.63;;;4.10;;
78875;SDS011;68253;52.506;5.486;2023-04-06T05:07:38;11.52;;;4.50;;
78875;SDS011;68253;52.506;5.486;2023-04-06T05:10:07;11.07;;;3.40;;
78875;SDS011;68253;52.506;5.486;2023-04-06T05:12:39;9.32;;;3.58;;
78875;SDS011;68253;52.506;5.486;2023-04-06T05:15:08;9.40;;;3.30;;
78875;SDS011;68253;52.506;5.486;2023-04-06T05:17:34;11.52;;;4.40;;
78875;SDS011;68253;52.506;5.486;2023-04-06T05:20:01;9.43;;;3.40;;
78875;SDS011;68253;52.506;5.486;2023-04-06T05:22:30;9.48;;;3.50;;
78875;SDS011;68253;52.506;5.486;2023-04-06T05:25:07;9.55;;;3.13;;
78875;SDS011;68253;52.506;5.486;2023-04-06T05:27:34;11.52;;;5.10;;
78875;SDS011;68253;52.506;5.486;2023-04-06T05:30:05;10.00;;;3.38;;
78875;SDS011;68253;52.506;5.486;2023-04-06T05:32:38;10.27;;;3.33;;
78875;SDS011;68253;52.506;5.486;2023-04-06T05:35:04;9.27;;;3.38;;
78875;SDS011;68253;52.506;5.486;2023-04-06T05:37:31;11.98;;;4.63;;
78875;SDS011;68253;52.506;5.486;2023-04-06T05:39:58;8.77;;;3.40;;
78875;SDS011;68253;52.506;5.486;2023-04-06T05:42:24;10.57;;;3.58;;
78875;SDS011;68253;52.506;5.486;2023-04-06T05:44:55;8.77;;;3.20;;
78875;SDS011;68253;52.506;5.486;2023-04-06T05:47:21;10.18;;;3.92;;
78875;SDS011;68253;52.506;5.486;2023-04-06T05:49:53;10.25;;;3.15;;
78875;SDS011;68253;52.506;5.486;2023-04-06T05:54:55;9.85;;;3.78;;
78875;SDS011;68253;52.506;5.486;2023-04-06T05:57:23;13.85;;;5.93;;
78875;SDS011;68253;52.506;5.486;2023-04-06T05:59:49;10.15;;;3.80;;
78875;SDS011;68253;52.506;5.486;2023-04-06T06:02:16;11.85;;;5.07;;
78875;SDS011;68253;52.506;5.486;2023-04-06T06:04:46;9.98;;;3.55;;
78875;SDS011;68253;52.506;5.486;2023-04-06T06:07:14;9.45;;;3.60;;
78875;SDS011;68253;52.506;5.486;2023-04-06T06:09:45;11.95;;;4.40;;
78875;SDS011;68253;52.506;5.486;2023-04-06T06:12:22;13.80;;;5.78;;
78875;SDS011;68253;52.506;5.486;2023-04-06T06:14:49;13.38;;;5.80;;
78875;SDS011;68253;52.506;5.486;2023-04-06T06:17:15;12.63;;;4.80;;
78875;SDS011;68253;52.506;5.486;2023-04-06T06:19:44;15.32;;;6.00;;
78875;SDS011;68253;52.506;5.486;2023-04-06T06:22:10;13.90;;;6.13;;
78875;SDS011;68253;52.506;5.486;2023-04-06T06:27:07;13.82;;;5.65;;
78875;SDS011;68253;52.506;5.486;2023-04-06T06:29:34;17.60;;;7.22;;
78875;SDS011;68253;52.506;5.486;2023-04-06T06:32:00;14.05;;;5.85;;
78875;SDS011;68253;52.506;5.486;2023-04-06T06:34:26;13.00;;;5.68;;
78875;SDS011;68253;52.506;5.486;2023-04-06T06:36:56;14.77;;;6.40;;
78875;SDS011;68253;52.506;5.486;2023-04-06T06:39:22;14.93;;;6.47;;
78875;SDS011;68253;52.506;5.486;2023-04-06T06:41:50;17.83;;;7.35;;
78875;SDS011;68253;52.506;5.486;2023-04-06T06:44:23;12.20;;;4.72;;
78875;SDS011;68253;52.506;5.486;2023-04-06T06:46:49;11.27;;;4.65;;
78875;SDS011;68253;52.506;5.486;2023-04-06T06:49:18;15.82;;;6.93;;
78875;SDS011;68253;52.506;5.486;2023-04-06T06:51:45;14.38;;;6.25;;
78875;SDS011;68253;52.506;5.486;2023-04-06T06:54:12;18.45;;;8.48;;
78875;SDS011;68253;52.506;5.486;2023-04-06T06:56:38;15.18;;;7.20;;
78875;SDS011;68253;52.506;5.486;2023-04-06T06:59:05;16.38;;;6.78;;
78875;SDS011;68253;52.506;5.486;2023-04-06T07:01:32;17.85;;;8.00;;
78875;SDS011;68253;52.506;5.486;2023-04-06T07:03:59;16.23;;;7.95;;
78875;SDS011;68253;52.506;5.486;2023-04-06T07:06:25;20.17;;;8.38;;
78875;SDS011;68253;52.506;5.486;2023-04-06T07:08:51;15.80;;;8.23;;
78875;SDS011;68253;52.506;5.486;2023-04-06T07:11:18;19.83;;;9.10;;
78875;SDS011;68253;52.506;5.486;2023-04-06T07:13:44;15.73;;;7.68;;
78875;SDS011;68253;52.506;5.486;2023-04-06T07:16:10;18.58;;;8.48;;
78875;SDS011;68253;52.506;5.486;2023-04-06T07:18:37;17.27;;;7.40;;
78875;SDS011;68253;52.506;5.486;2023-04-06T07:21:03;17.25;;;7.95;;
78875;SDS011;68253;52.506;5.486;2023-04-06T07:23:30;21.58;;;9.40;;
78875;SDS011;68253;52.506;5.486;2023-04-06T07:25:56;20.50;;;8.75;;
78875;SDS011;68253;52.506;5.486;2023-04-06T07:28:22;16.40;;;7.38;;
78875;SDS011;68253;52.506;5.486;2023-04-06T07:30:48;16.45;;;7.22;;
78875;SDS011;68253;52.506;5.486;2023-04-06T07:33:14;16.77;;;6.32;;
78875;SDS011;68253;52.506;5.486;2023-04-06T07:35:41;20.05;;;9.80;;
78875;SDS011;68253;52.506;5.486;2023-04-06T07:38:07;17.05;;;7.22;;
78875;SDS011;68253;52.506;5.486;2023-04-06T07:40:35;17.05;;;8.15;;
78875;SDS011;68253;52.506;5.486;2023-04-06T07:43:01;16.85;;;7.72;;
78875;SDS011;68253;52.506;5.486;2023-04-06T07:45:28;16.08;;;7.28;;
78875;SDS011;68253;52.506;5.486;2023-04-06T07:47:55;19.65;;;8.20;;
78875;SDS011;68253;52.506;5.486;2023-04-06T07:50:24;17.00;;;7.90;;
78875;SDS011;68253;52.506;5.486;2023-04-06T07:52:51;16.83;;;6.70;;
78875;SDS011;68253;52.506;5.486;2023-04-06T07:55:17;18.92;;;9.23;;
78875;SDS011;68253;52.506;5.486;2023-04-06T07:57:43;16.40;;;7.13;;
78875;SDS011;68253;52.506;5.486;2023-04-06T08:00:10;14.88;;;6.55;;
78875;SDS011;68253;52.506;5.486;2023-04-06T08:02:39;18.42;;;8.38;;
78875;SDS011;68253;52.506;5.486;2023-04-06T08:05:05;16.80;;;7.82;;
78875;SDS011;68253;52.506;5.486;2023-04-06T08:07:32;20.23;;;8.15;;
78875;SDS011;68253;52.506;5.486;2023-04-06T08:09:58;18.98;;;8.02;;
78875;SDS011;68253;52.506;5.486;2023-04-06T08:12:25;14.30;;;5.90;;
78875;SDS011;68253;52.506;5.486;2023-04-06T08:14:51;21.50;;;8.48;;
78875;SDS011;68253;52.506;5.486;2023-04-06T08:17:17;16.83;;;6.55;;
78875;SDS011;68253;52.506;5.486;2023-04-06T08:19:43;17.92;;;8.20;;
78875;SDS011;68253;52.506;5.486;2023-04-06T08:22:10;14.65;;;6.35;;
78875;SDS011;68253;52.506;5.486;2023-04-06T08:24:37;18.88;;;8.00;;
78875;SDS011;68253;52.506;5.486;2023-04-06T08:27:03;18.73;;;7.88;;
78875;SDS011;68253;52.506;5.486;2023-04-06T08:29:29;19.50;;;9.02;;
78875;SDS011;68253;52.506;5.486;2023-04-06T08:31:55;17.38;;;8.43;;
78875;SDS011;68253;52.506;5.486;2023-04-06T08:34:21;18.38;;;8.10;;
78875;SDS011;68253;52.506;5.486;2023-04-06T08:36:48;24.08;;;10.98;;
78875;SDS011;68253;52.506;5.486;2023-04-06T08:39:14;19.88;;;8.80;;
78875;SDS011;68253;52.506;5.486;2023-04-06T08:41:43;18.52;;;7.75;;
78875;SDS011;68253;52.506;5.486;2023-04-06T08:46:36;19.73;;;8.50;;
78875;SDS011;68253;52.506;5.486;2023-04-06T08:49:03;19.70;;;9.38;;
78875;SDS011;68253;52.506;5.486;2023-04-06T08:51:32;19.15;;;9.55;;
78875;SDS011;68253;52.506;5.486;2023-04-06T08:53:59;22.63;;;10.20;;
78875;SDS011;68253;52.506;5.486;2023-04-06T08:56:27;22.63;;;11.07;;
78875;SDS011;68253;52.506;5.486;2023-04-06T08:58:54;24.05;;;11.85;;
78875;SDS011;68253;52.506;5.486;2023-04-06T09:01:22;24.17;;;11.10;;
78875;SDS011;68253;52.506;5.486;2023-04-06T09:03:51;25.70;;;11.90;;
78875;SDS011;68253;52.506;5.486;2023-04-06T09:06:22;20.33;;;10.05;;
78875;SDS011;68253;52.506;5.486;2023-04-06T09:08:50;22.02;;;10.00;;
78875;SDS011;68253;52.506;5.486;2023-04-06T09:11:16;21.10;;;9.68;;
78875;SDS011;68253;52.506;5.486;2023-04-06T09:13:49;19.67;;;9.27;;
78875;SDS011;68253;52.506;5.486;2023-04-06T09:16:17;20.20;;;9.70;;
78875;SDS011;68253;52.506;5.486;2023-04-06T09:18:43;26.88;;;11.25;;
78875;SDS011;68253;52.506;5.486;2023-04-06T09:21:10;22.15;;;10.10;;
78875;SDS011;68253;52.506;5.486;2023-04-06T09:23:37;26.42;;;12.90;;
78875;SDS011;68253;52.506;5.486;2023-04-06T09:26:08;23.33;;;10.60;;
78875;SDS011;68253;52.506;5.486;2023-04-06T09:28:45;24.65;;;12.82;;
78875;SDS011;68253;52.506;5.486;2023-04-06T09:31:12;24.38;;;12.32;;
78875;SDS011;68253;52.506;5.486;2023-04-06T09:33:41;20.40;;;10.73;;
78875;SDS011;68253;52.506;5.486;2023-04-06T09:36:07;22.63;;;9.93;;
78875;SDS011;68253;52.506;5.486;2023-04-06T09:38:37;22.00;;;10.38;;
78875;SDS011;68253;52.506;5.486;2023-04-06T09:41:04;22.63;;;10.38;;
78875;SDS011;68253;52.506;5.486;2023-04-06T09:43:31;21.10;;;9.88;;
78875;SDS011;68253;52.506;5.486;2023-04-06T09:45:57;21.08;;;10.60;;
78875;SDS011;68253;52.506;5.486;2023-04-06T09:48:26;27.27;;;12.95;;
78875;SDS011;68253;52.506;5.486;2023-04-06T09:50:56;21.80;;;10.48;;
78875;SDS011;68253;52.506;5.486;2023-04-06T09:53:28;23.02;;;10.50;;
78875;SDS011;68253;52.506;5.486;2023-04-06T09:55:57;22.58;;;10.75;;
78875;SDS011;68253;52.506;5.486;2023-04-06T09:58:27;23.70;;;10.93;;
78875;SDS011;68253;52.506;5.486;2023-04-06T10:01:07;23.20;;;11.02;;
78875;SDS011;68253;52.506;5.486;2023-04-06T10:06:21;21.30;;;9.52;;
78875;SDS011;68253;52.506;5.486;2023-04-06T10:08:49;18.40;;;9.20;;
78875;SDS011;68253;52.506;5.486;2023-04-06T10:11:17;20.75;;;9.82;;
78875;SDS011;68253;52.506;5.486;2023-04-06T10:13:44;21.92;;;9.48;;
78875;SDS011;68253;52.506;5.486;2023-04-06T10:16:13;22.90;;;10.82;;
78875;SDS011;68253;52.506;5.486;2023-04-06T10:18:41;17.70;;;8.68;;
78875;SDS011;68253;52.506;5.486;2023-04-06T10:21:12;19.30;;;9.07;;
78875;SDS011;68253;52.506;5.486;2023-04-06T10:23:52;23.80;;;10.63;;
78875;SDS011;68253;52.506;5.486;2023-04-06T10:26:21;20.33;;;9.50;;
78875;SDS011;68253;52.506;5.486;2023-04-06T10:28:47;24.65;;;10.88;;
78875;SDS011;68253;52.506;5.486;2023-04-06T10:31:15;20.20;;;9.48;;
78875;SDS011;68253;52.506;5.486;2023-04-06T10:33:54;21.83;;;10.25;;
78875;SDS011;68253;52.506;5.486;2023-04-06T10:36:28;21.50;;;10.88;;
78875;SDS011;68253;52.506;5.486;2023-04-06T10:38:57;21.20;;;10.90;;
78875;SDS011;68253;52.506;5.486;2023-04-06T10:41:41;20.38;;;9.25;;
78875;SDS011;68253;52.506;5.486;2023-04-06T10:44:17;19.40;;;10.05;;
78875;SDS011;68253;52.506;5.486;2023-04-06T10:46:56;20.90;;;9.80;;
78875;SDS011;68253;52.506;5.486;2023-04-06T10:49:24;22.48;;;10.68;;
78875;SDS011;68253;52.506;5.486;2023-04-06T10:51:51;21.00;;;10.57;;
78875;SDS011;68253;52.506;5.486;2023-04-06T10:54:21;22.75;;;10.82;;
78875;SDS011;68253;52.506;5.486;2023-04-06T10:56:49;20.50;;;10.65;;
78875;SDS011;68253;52.506;5.486;2023-04-06T10:59:21;18.73;;;9.07;;
78875;SDS011;68253;52.506;5.486;2023-04-06T11:01:49;20.42;;;10.23;;
78875;SDS011;68253;52.506;5.486;2023-04-06T11:04:15;20.35;;;10.05;;
78875;SDS011;68253;52.506;5.486;2023-04-06T11:06:46;19.83;;;8.65;;
78875;SDS011;68253;52.506;5.486;2023-04-06T11:09:23;19.90;;;9.25;;
78875;SDS011;68253;52.506;5.486;2023-04-06T11:11:51;19.88;;;9.65;;
78875;SDS011;68253;52.506;5.486;2023-04-06T11:14:18;16.95;;;8.02;;
78875;SDS011;68253;52.506;5.486;2023-04-06T11:16:45;15.98;;;6.43;;
78875;SDS011;68253;52.506;5.486;2023-04-06T11:19:16;15.75;;;5.90;;
78875;SDS011;68253;52.506;5.486;2023-04-06T11:21:47;14.05;;;6.15;;
78875;SDS011;68253;52.506;5.486;2023-04-06T11:26:42;14.68;;;5.68;;
78875;SDS011;68253;52.506;5.486;2023-04-06T11:29:17;14.18;;;5.78;;
78875;SDS011;68253;52.506;5.486;2023-04-06T11:31:46;17.50;;;6.30;;
78875;SDS011;68253;52.506;5.486;2023-04-06T11:34:20;11.95;;;4.93;;
78875;SDS011;68253;52.506;5.486;2023-04-06T11:36:55;13.50;;;5.47;;
78875;SDS011;68253;52.506;5.486;2023-04-06T11:39:25;12.02;;;4.60;;
78875;SDS011;68253;52.506;5.486;2023-04-06T11:41:54;13.57;;;4.97;;
78875;SDS011;68253;52.506;5.486;2023-04-06T11:44:29;13.68;;;4.63;;
78875;SDS011;68253;52.506;5.486;2023-04-06T11:47:11;11.35;;;4.30;;
78875;SDS011;68253;52.506;5.486;2023-04-06T11:49:38;13.00;;;4.82;;
78875;SDS011;68253;52.506;5.486;2023-04-06T11:52:25;10.40;;;3.83;;
78875;SDS011;68253;52.506;5.486;2023-04-06T11:54:53;10.30;;;3.70;;
78875;SDS011;68253;52.506;5.486;2023-04-06T11:57:20;9.13;;;3.40;;
78875;SDS011;68253;52.506;5.486;2023-04-06T11:59:51;9.52;;;3.60;;
78875;SDS011;68253;52.506;5.486;2023-04-06T12:02:17;8.75;;;3.10;;
78875;SDS011;68253;52.506;5.486;2023-04-06T12:04:44;8.55;;;2.70;;
78875;SDS011;68253;52.506;5.486;2023-04-06T12:07:11;8.40;;;2.58;;
78875;SDS011;68253;52.506;5.486;2023-04-06T12:09:37;9.23;;;2.90;;
78875;SDS011;68253;52.506;5.486;2023-04-06T12:12:04;8.90;;;2.75;;
78875;SDS011;68253;52.506;5.486;2023-04-06T12:14:30;8.95;;;2.97;;
78875;SDS011;68253;52.506;5.486;2023-04-06T12:16:56;8.70;;;2.92;;
78875;SDS011;68253;52.506;5.486;2023-04-06T12:19:23;9.57;;;3.00;;
78875;SDS011;68253;52.506;5.486;2023-04-06T12:21:53;8.20;;;3.10;;
78875;SDS011;68253;52.506;5.486;2023-04-06T12:24:20;10.70;;;3.33;;
78875;SDS011;68253;52.506;5.486;2023-04-06T12:26:46;10.43;;;3.40;;
78875;SDS011;68253;52.506;5.486;2023-04-06T12:29:12;10.27;;;3.33;;
78875;SDS011;68253;52.506;5.486;2023-04-06T12:31:39;10.45;;;3.95;;
78875;SDS011;68253;52.506;5.486;2023-04-06T12:34:06;9.68;;;3.28;;
78875;SDS011;68253;52.506;5.486;2023-04-06T12:36:32;11.23;;;4.45;;
78875;SDS011;68253;52.506;5.486;2023-04-06T12:38:59;11.35;;;4.70;;
78875;SDS011;68253;52.506;5.486;2023-04-06T12:41:28;13.20;;;5.18;;
78875;SDS011;68253;52.506;5.486;2023-04-06T12:43:55;10.98;;;4.13;;
78875;SDS011;68253;52.506;5.486;2023-04-06T12:46:21;10.23;;;3.83;;
78875;SDS011;68253;52.506;5.486;2023-04-06T12:48:48;10.05;;;3.92;;
78875;SDS011;68253;52.506;5.486;2023-04-06T12:51:14;10.95;;;3.50;;
78875;SDS011;68253;52.506;5.486;2023-04-06T12:53:41;10.50;;;3.38;;
78875;SDS011;68253;52.506;5.486;2023-04-06T12:56:11;11.50;;;4.57;;
78875;SDS011;68253;52.506;5.486;2023-04-06T12:58:38;11.30;;;4.95;;
78875;SDS011;68253;52.506;5.486;2023-04-06T13:01:07;10.65;;;3.40;;
78875;SDS011;68253;52.506;5.486;2023-04-06T13:03:33;10.05;;;3.80;;
78875;SDS011;68253;52.506;5.486;2023-04-06T13:06:00;11.40;;;4.22;;
78875;SDS011;68253;52.506;5.486;2023-04-06T13:08:27;10.68;;;4.68;;
78875;SDS011;68253;52.506;5.486;2023-04-06T13:10:53;10.05;;;4.45;;
78875;SDS011;68253;52.506;5.486;2023-04-06T13:13:29;14.57;;;6.05;;
78875;SDS011;68253;52.506;5.486;2023-04-06T13:16:00;10.95;;;4.70;;
78875;SDS011;68253;52.506;5.486;2023-04-06T13:18:29;11.07;;;4.90;;
78875;SDS011;68253;52.506;5.486;2023-04-06T13:20:56;12.55;;;5.43;;
78875;SDS011;68253;52.506;5.486;2023-04-06T13:23:23;11.52;;;5.30;;
78875;SDS011;68253;52.506;5.486;2023-04-06T13:25:59;12.05;;;4.40;;
78875;SDS011;68253;52.506;5.486;2023-04-06T13:28:26;12.32;;;5.07;;
78875;SDS011;68253;52.506;5.486;2023-04-06T13:30:53;11.80;;;5.13;;
78875;SDS011;68253;52.506;5.486;2023-04-06T13:33:19;9.55;;;3.72;;
78875;SDS011;68253;52.506;5.486;2023-04-06T13:35:46;11.98;;;4.72;;
78875;SDS011;68253;52.506;5.486;2023-04-06T13:38:12;11.45;;;5.32;;
78875;SDS011;68253;52.506;5.486;2023-04-06T13:40:39;12.73;;;5.00;;
78875;SDS011;68253;52.506;5.486;2023-04-06T13:43:06;12.32;;;5.32;;
78875;SDS011;68253;52.506;5.486;2023-04-06T13:45:32;12.60;;;5.15;;
78875;SDS011;68253;52.506;5.486;2023-04-06T13:47:59;11.70;;;4.72;;
78875;SDS011;68253;52.506;5.486;2023-04-06T13:50:25;11.57;;;4.53;;
78875;SDS011;68253;52.506;5.486;2023-04-06T13:52:52;13.38;;;5.30;;
78875;SDS011;68253;52.506;5.486;2023-04-06T13:55:19;16.33;;;5.88;;
78875;SDS011;68253;52.506;5.486;2023-04-06T13:57:45;12.32;;;5.28;;
78875;SDS011;68253;52.506;5.486;2023-04-06T14:00:11;12.27;;;4.70;;
78875;SDS011;68253;52.506;5.486;2023-04-06T14:02:40;13.40;;;6.38;;
78875;SDS011;68253;52.506;5.486;2023-04-06T14:05:06;15.65;;;6.53;;
78875;SDS011;68253;52.506;5.486;2023-04-06T14:07:32;13.15;;;5.57;;
78875;SDS011;68253;52.506;5.486;2023-04-06T14:09:58;11.25;;;4.40;;
78875;SDS011;68253;52.506;5.486;2023-04-06T14:12:25;12.52;;;4.38;;
78875;SDS011;68253;52.506;5.486;2023-04-06T14:14:52;11.80;;;5.05;;
78875;SDS011;68253;52.506;5.486;2023-04-06T14:17:18;12.90;;;5.43;;
78875;SDS011;68253;52.506;5.486;2023-04-06T14:19:44;10.85;;;4.07;;
78875;SDS011;68253;52.506;5.486;2023-04-06T14:22:11;14.27;;;6.05;;
78875;SDS011;68253;52.506;5.486;2023-04-06T14:24:37;13.75;;;6.28;;
78875;SDS011;68253;52.506;5.486;2023-04-06T14:27:03;11.77;;;5.60;;
78875;SDS011;68253;52.506;5.486;2023-04-06T14:29:29;10.77;;;4.53;;
78875;SDS011;68253;52.506;5.486;2023-04-06T14:31:55;11.27;;;4.90;;
78875;SDS011;68253;52.506;5.486;2023-04-06T14:34:28;14.05;;;6.28;;
78875;SDS011;68253;52.506;5.486;2023-04-06T14:36:54;11.02;;;5.03;;
78875;SDS011;68253;52.506;5.486;2023-04-06T14:39:21;11.13;;;4.78;;
78875;SDS011;68253;52.506;5.486;2023-04-06T14:41:47;12.02;;;5.65;;
78875;SDS011;68253;52.506;5.486;2023-04-06T14:44:16;12.27;;;5.28;;
78875;SDS011;68253;52.506;5.486;2023-04-06T14:46:42;13.25;;;4.97;;
78875;SDS011;68253;52.506;5.486;2023-04-06T14:49:08;12.32;;;5.18;;
78875;SDS011;68253;52.506;5.486;2023-04-06T14:51:35;11.43;;;4.47;;
78875;SDS011;68253;52.506;5.486;2023-04-06T14:54:01;11.95;;;4.80;;
78875;SDS011;68253;52.506;5.486;2023-04-06T14:56:30;12.30;;;4.10;;
78875;SDS011;68253;52.506;5.486;2023-04-06T14:58:59;12.25;;;5.03;;
78875;SDS011;68253;52.506;5.486;2023-04-06T15:01:29;13.93;;;6.03;;
78875;SDS011;68253;52.506;5.486;2023-04-06T15:03:59;12.68;;;5.15;;